Time;durP1;ratioP1;P1;durP2;ratioP2;P2;SDS_P1;SDS_P2;PMS_P1;PMS_P2;Temp;Humidity;BMP_temperature;BMP_pressure;BME280_temperature;BME280_humidity;BME280_pressure;Samples;Min_cycle;Max_cycle;Signal;HPM_P1;HPM_P2
2023/01/04 00:00:24;;;;;;;38.58;22.00;;;24.10;45.30;;;;;;6110549;28;85764;-67
2023/01/04 00:03:25;;;;;;;33.63;20.30;;;24.10;45.40;;;;;;6077592;28;84246;-64
2023/01/04 00:06:25;;;;;;;34.72;19.83;;;24.10;45.30;;;;;;6076570;28;86518;-65
2023/01/04 00:09:26;;;;;;;35.50;19.80;;;24.10;45.30;;;;;;6072375;28;84824;-65
2023/01/04 00:12:26;;;;;;;30.30;19.20;;;24.10;45.40;;;;;;6099868;28;84168;-69
2023/01/04 00:15:27;;;;;;;31.13;18.88;;;24.10;45.20;;;;;;6072990;28;83973;-67
2023/01/04 00:18:27;;;;;;;30.15;18.42;;;24.00;45.20;;;;;;6079516;28;84413;-69
2023/01/04 00:21:28;;;;;;;32.75;19.75;;;24.10;45.20;;;;;;6086619;28;83441;-69
2023/01/04 00:24:28;;;;;;;27.88;17.73;;;24.10;45.20;;;;;;6097648;28;83263;-69
2023/01/04 00:27:29;;;;;;;29.00;18.38;;;24.10;45.20;;;;;;6108305;28;82909;-69
2023/01/04 00:30:29;;;;;;;30.25;17.90;;;24.10;45.20;;;;;;6095630;28;85197;-63
2023/01/04 00:33:31;;;;;;;26.67;16.15;;;24.00;45.20;;;;;;6103135;28;83294;-64
2023/01/04 00:36:31;;;;;;;26.92;16.88;;;24.00;45.20;;;;;;6107018;28;83550;-65
2023/01/04 00:39:32;;;;;;;32.08;18.10;;;24.00;45.30;;;;;;6078721;28;83628;-64
2023/01/04 00:42:32;;;;;;;27.42;16.77;;;24.00;45.20;;;;;;6079184;28;84465;-66
2023/01/04 00:45:33;;;;;;;28.92;17.27;;;24.00;45.30;;;;;;6078708;28;83706;-66
2023/01/04 00:48:33;;;;;;;28.48;17.35;;;24.00;45.10;;;;;;6090928;28;83204;-67
2023/01/04 00:51:34;;;;;;;28.85;17.42;;;24.00;45.00;;;;;;6084587;28;84294;-65
2023/01/04 00:54:34;;;;;;;29.90;17.02;;;24.00;45.00;;;;;;6084238;28;85007;-65
2023/01/04 00:57:35;;;;;;;31.92;17.50;;;24.00;45.10;;;;;;6092284;28;83264;-66
2023/01/04 01:00:35;;;;;;;24.00;16.65;;;24.00;45.00;;;;;;6079987;28;84783;-65
2023/01/04 01:03:37;;;;;;;28.13;16.38;;;24.00;45.10;;;;;;6095216;28;83410;-66
2023/01/04 01:06:37;;;;;;;25.20;15.98;;;24.00;45.00;;;;;;6079599;28;85667;-66
2023/01/04 01:09:38;;;;;;;28.63;16.98;;;24.00;45.00;;;;;;6089864;28;83404;-65
2023/01/04 01:12:39;;;;;;;25.63;16.25;;;24.00;45.00;;;;;;6092476;28;84284;-65
2023/01/04 01:15:39;;;;;;;26.05;16.05;;;24.00;44.90;;;;;;6090606;28;83525;-64
2023/01/04 01:18:40;;;;;;;24.33;15.25;;;24.00;44.90;;;;;;6084520;28;85241;-64
2023/01/04 01:21:40;;;;;;;25.52;16.02;;;24.00;44.80;;;;;;6091441;28;88695;-65
2023/01/04 01:24:41;;;;;;;26.90;15.73;;;24.00;44.80;;;;;;6102307;28;83996;-64
2023/01/04 01:27:41;;;;;;;26.88;16.45;;;24.00;44.60;;;;;;6100268;28;83019;-65
2023/01/04 01:30:42;;;;;;;25.80;14.80;;;24.00;44.70;;;;;;6100642;28;83366;-65
2023/01/04 01:33:42;;;;;;;25.10;15.23;;;24.00;44.70;;;;;;6106421;28;84543;-67
2023/01/04 01:36:43;;;;;;;22.25;14.50;;;24.00;44.70;;;;;;6083247;28;83156;-67
2023/01/04 01:39:43;;;;;;;24.52;14.82;;;24.00;44.60;;;;;;6085629;28;83094;-67
2023/01/04 01:42:44;;;;;;;24.65;14.43;;;24.00;44.60;;;;;;6077834;28;83219;-67
2023/01/04 01:45:44;;;;;;;24.92;14.10;;;24.00;44.60;;;;;;6080943;28;83411;-66
2023/01/04 01:48:45;;;;;;;23.75;14.27;;;24.00;44.60;;;;;;6079721;28;83511;-66
2023/01/04 01:51:45;;;;;;;21.45;13.20;;;24.00;44.50;;;;;;6099106;28;83581;-67
2023/01/04 01:54:46;;;;;;;22.63;14.27;;;24.00;44.40;;;;;;6080339;28;83067;-65
2023/01/04 01:57:46;;;;;;;21.40;13.52;;;24.00;44.50;;;;;;6083351;28;83479;-68
2023/01/04 02:00:47;;;;;;;23.30;14.35;;;23.90;44.30;;;;;;6095849;28;83003;-68
2023/01/04 02:03:47;;;;;;;20.80;13.82;;;23.90;44.40;;;;;;6079321;28;82786;-67
2023/01/04 02:06:48;;;;;;;24.80;15.20;;;23.90;44.30;;;;;;6079173;28;83854;-70
2023/01/04 02:09:48;;;;;;;21.17;13.23;;;23.90;44.40;;;;;;6075860;28;83351;-67
2023/01/04 02:12:49;;;;;;;19.20;12.07;;;23.90;44.20;;;;;;6086428;28;83127;-68
2023/01/04 02:15:49;;;;;;;23.45;12.90;;;23.90;44.20;;;;;;6085709;28;86656;-68
2023/01/04 02:18:50;;;;;;;21.50;12.73;;;23.90;44.30;;;;;;6086063;28;83222;-69
2023/01/04 02:21:50;;;;;;;24.63;14.65;;;23.90;44.40;;;;;;6098205;28;83901;-60
2023/01/04 02:24:51;;;;;;;20.95;12.23;;;23.90;44.30;;;;;;6096302;28;83177;-61
2023/01/04 02:27:51;;;;;;;20.30;12.98;;;23.80;44.20;;;;;;6100882;28;83621;-61
2023/01/04 02:30:52;;;;;;;21.20;13.60;;;23.90;44.20;;;;;;6090474;28;83243;-61
2023/01/04 02:33:52;;;;;;;20.80;13.07;;;23.80;44.20;;;;;;6083708;28;83554;-61
2023/01/04 02:36:53;;;;;;;22.02;13.20;;;23.80;44.10;;;;;;6085103;28;85002;-60
2023/01/04 02:39:53;;;;;;;23.60;13.55;;;23.80;44.00;;;;;;6097158;28;84244;-67
2023/01/04 02:46:14;;;;;;;19.92;12.52;;;23.80;44.00;;;;;;6075714;28;83419;-70
2023/01/04 02:52:33;;;;;;;21.60;13.25;;;23.90;44.00;;;;;;6093621;28;87523;-68
2023/01/04 02:55:34;;;;;;;21.13;12.88;;;23.80;44.00;;;;;;6089262;28;83630;-67
2023/01/04 02:58:35;;;;;;;23.08;12.43;;;23.80;43.80;;;;;;6091167;28;83456;-68
2023/01/04 03:08:14;;;;;;;22.27;12.88;;;23.80;43.80;;;;;;6080159;28;83652;-69
2023/01/04 03:14:34;;;;;;;23.15;13.38;;;23.80;43.70;;;;;;6109813;28;83342;-66
2023/01/04 03:17:34;;;;;;;22.30;12.85;;;23.80;43.70;;;;;;6096872;28;84308;-62
2023/01/04 03:20:35;;;;;;;22.20;12.73;;;23.80;43.60;;;;;;6108080;28;83832;-61
2023/01/04 03:36:52;;;;;;;22.08;13.45;;;23.80;43.60;;;;;;6064839;28;83747;-70
2023/01/04 03:49:56;;;;;;;21.00;13.18;;;23.80;43.60;;;;;;6061331;28;83306;-68
2023/01/04 03:52:58;;;;;;;22.90;12.85;;;23.80;43.70;;;;;;6074973;28;83232;-63
2023/01/04 03:55:58;;;;;;;20.80;13.15;;;23.70;43.60;;;;;;6073986;28;83156;-65
2023/01/04 03:58:59;;;;;;;20.63;12.95;;;23.70;43.60;;;;;;6059542;28;83151;-64
2023/01/04 04:02:01;;;;;;;20.85;11.98;;;23.80;43.60;;;;;;6078024;28;83577;-66
2023/01/04 04:08:30;;;;;;;21.33;12.40;;;23.80;43.90;;;;;;6064590;28;84101;-66
2023/01/04 04:11:30;;;;;;;19.45;13.00;;;23.80;44.10;;;;;;6066059;28;83242;-67
2023/01/04 04:14:31;;;;;;;18.17;12.32;;;23.80;43.80;;;;;;6077256;28;84140;-66
2023/01/04 04:17:31;;;;;;;21.00;11.95;;;23.80;43.90;;;;;;6075354;28;85219;-66
2023/01/04 04:20:32;;;;;;;23.30;13.27;;;23.80;43.90;;;;;;6076575;28;83201;-67
2023/01/04 04:23:33;;;;;;;23.85;12.90;;;23.90;43.90;;;;;;6076638;28;84000;-67
2023/01/04 04:26:33;;;;;;;20.52;13.02;;;23.90;43.70;;;;;;6063798;28;83574;-66
2023/01/04 04:29:34;;;;;;;22.08;13.10;;;23.90;43.60;;;;;;6053399;28;85419;-66
2023/01/04 04:32:34;;;;;;;24.90;14.88;;;24.00;43.60;;;;;;6053409;28;87782;-69
2023/01/04 04:35:35;;;;;;;23.05;14.07;;;24.00;43.30;;;;;;6052336;28;83467;-67
2023/01/04 04:38:35;;;;;;;21.50;13.55;;;24.10;43.30;;;;;;6063374;28;86467;-66
2023/01/04 04:41:40;;;;;;;23.02;13.80;;;24.10;43.00;;;;;;6049467;28;85016;-68
2023/01/04 04:44:40;;;;;;;20.52;13.40;;;24.10;42.90;;;;;;6062827;28;90124;-71
2023/01/04 04:47:41;;;;;;;24.63;14.88;;;24.20;43.10;;;;;;6056296;28;85158;-62
2023/01/04 04:50:41;;;;;;;24.40;15.15;;;24.20;42.70;;;;;;6047881;28;83352;-61
2023/01/04 04:53:42;;;;;;;25.48;14.70;;;24.30;42.90;;;;;;6052904;28;83638;-65
2023/01/04 04:56:42;;;;;;;26.85;15.43;;;24.30;43.00;;;;;;6066518;28;83325;-64
2023/01/04 04:59:43;;;;;;;24.92;14.70;;;24.30;43.00;;;;;;6065716;28;83555;-64
2023/01/04 05:02:43;;;;;;;26.73;13.80;;;24.30;43.00;;;;;;6055677;28;83211;-61
2023/01/04 05:05:44;;;;;;;25.55;14.57;;;24.40;43.20;;;;;;6061348;28;83845;-58
2023/01/04 05:08:44;;;;;;;22.33;14.10;;;24.40;43.20;;;;;;6058469;28;83238;-67
2023/01/04 05:15:04;;;;;;;24.92;14.77;;;24.40;42.70;;;;;;6071910;28;86884;-63
2023/01/04 05:18:04;;;;;;;26.10;14.88;;;24.40;42.90;;;;;;6068666;28;83520;-64
2023/01/04 05:21:05;;;;;;;22.75;14.40;;;24.40;42.70;;;;;;6074180;28;83169;-63
2023/01/04 05:24:05;;;;;;;24.48;14.55;;;24.40;42.80;;;;;;6074797;28;83458;-62
2023/01/04 05:27:06;;;;;;;22.80;14.27;;;24.40;42.90;;;;;;6091501;28;83247;-62
2023/01/04 05:33:26;;;;;;;30.45;13.88;;;24.40;43.50;;;;;;6077558;28;85079;-62
2023/01/04 05:36:26;;;;;;;21.33;12.98;;;24.40;43.60;;;;;;6076414;28;84175;-63
2023/01/04 05:39:27;;;;;;;22.25;12.57;;;24.40;43.80;;;;;;6068047;28;84881;-63
2023/01/04 05:42:27;;;;;;;23.30;13.48;;;24.40;44.00;;;;;;6075801;28;83291;-62
2023/01/04 05:45:28;;;;;;;19.77;12.20;;;24.40;44.10;;;;;;6062419;28;86443;-62
2023/01/04 05:48:28;;;;;;;19.42;12.90;;;24.40;44.00;;;;;;6088998;28;83471;-64
2023/01/04 05:51:29;;;;;;;23.60;13.27;;;24.40;43.90;;;;;;6076643;28;83340;-62
2023/01/04 05:54:29;;;;;;;21.73;12.45;;;24.40;44.00;;;;;;6076141;28;83582;-64
2023/01/04 05:57:30;;;;;;;22.45;13.07;;;24.40;44.30;;;;;;6077158;28;83576;-63
2023/01/04 06:00:30;;;;;;;20.45;11.70;;;24.40;43.80;;;;;;6072827;28;84196;-64
2023/01/04 06:03:31;;;;;;;17.65;10.43;;;24.30;43.90;;;;;;6064337;28;86421;-61
2023/01/04 06:06:31;;;;;;;17.80;11.18;;;24.30;44.20;;;;;;6051468;28;83525;-60
2023/01/04 06:09:32;;;;;;;20.52;12.20;;;24.30;44.10;;;;;;6050449;28;83097;-61
2023/01/04 06:12:32;;;;;;;18.65;11.55;;;24.30;43.90;;;;;;6055584;28;83136;-61
2023/01/04 06:15:33;;;;;;;20.25;11.32;;;24.30;43.80;;;;;;6053025;28;86593;-62
2023/01/04 06:18:33;;;;;;;19.55;12.18;;;24.30;44.10;;;;;;6067421;28;84051;-66
2023/01/04 06:21:34;;;;;;;18.92;11.60;;;24.30;44.00;;;;;;6069207;28;83177;-64
2023/01/04 06:24:34;;;;;;;18.02;11.23;;;24.30;43.90;;;;;;6072314;28;83003;-67
2023/01/04 06:27:35;;;;;;;17.67;11.15;;;24.30;44.00;;;;;;6097846;28;83368;-65
2023/01/04 06:30:36;;;;;;;16.83;10.40;;;24.20;44.00;;;;;;6081324;28;84103;-70
2023/01/04 06:33:36;;;;;;;18.90;10.60;;;24.10;43.70;;;;;;6072360;28;84769;-65
2023/01/04 06:36:37;;;;;;;19.63;11.57;;;24.10;43.60;;;;;;6075747;28;83312;-68
2023/01/04 06:39:37;;;;;;;17.75;10.73;;;24.00;43.70;;;;;;6072714;28;83183;-65
2023/01/04 06:42:44;;;;;;;17.50;10.75;;;24.00;44.70;;;;;;6050260;28;84392;-66
2023/01/04 06:45:44;;;;;;;20.38;11.88;;;24.00;44.20;;;;;;6072055;28;83276;-66
2023/01/04 06:48:45;;;;;;;20.55;13.68;;;24.00;43.90;;;;;;6061013;28;83377;-67
2023/01/04 06:51:46;;;;;;;23.23;12.95;;;24.00;43.80;;;;;;6061477;28;86202;-66
2023/01/04 06:54:46;;;;;;;25.92;13.32;;;24.00;43.70;;;;;;6052986;28;83764;-66
2023/01/04 06:57:47;;;;;;;18.63;11.95;;;24.00;43.50;;;;;;6055876;28;83290;-67
2023/01/04 07:00:47;;;;;;;21.27;13.13;;;23.90;43.30;;;;;;6058438;28;83529;-66
2023/01/04 07:03:48;;;;;;;25.50;14.25;;;24.00;43.30;;;;;;6061718;28;83160;-67
2023/01/04 07:06:48;;;;;;;20.35;13.95;;;24.00;43.20;;;;;;6058876;28;83513;-67
2023/01/04 07:09:49;;;;;;;24.52;14.07;;;24.00;43.10;;;;;;6063000;28;84984;-66
2023/01/04 07:12:49;;;;;;;21.27;13.93;;;24.00;43.00;;;;;;6067999;28;83801;-66
2023/01/04 07:15:50;;;;;;;24.33;14.88;;;24.00;42.90;;;;;;6075039;28;83114;-65
2023/01/04 07:18:50;;;;;;;23.10;14.13;;;24.00;42.80;;;;;;6075027;28;83755;-64
2023/01/04 07:21:52;;;;;;;27.95;14.93;;;24.00;42.80;;;;;;6075728;28;83159;-65
2023/01/04 07:24:53;;;;;;;23.65;15.15;;;24.00;42.70;;;;;;6072659;28;83374;-65
2023/01/04 07:27:53;;;;;;;24.73;15.35;;;24.00;42.70;;;;;;6096800;28;83649;-68
2023/01/04 07:30:54;;;;;;;24.83;15.57;;;24.10;42.70;;;;;;6052723;28;90012;-66
2023/01/04 07:33:54;;;;;;;25.90;16.33;;;24.10;42.50;;;;;;6059418;28;84769;-66
2023/01/04 07:36:55;;;;;;;26.00;15.93;;;24.10;42.40;;;;;;6061800;28;87648;-65
2023/01/04 07:39:55;;;;;;;26.00;16.42;;;24.10;42.30;;;;;;6058333;28;84464;-63
2023/01/04 07:42:56;;;;;;;26.05;16.98;;;24.10;42.40;;;;;;6055694;28;83440;-62
2023/01/04 07:45:56;;;;;;;25.67;17.08;;;24.20;42.00;;;;;;6050272;28;83603;-63
2023/01/04 07:48:57;;;;;;;25.65;16.80;;;24.20;42.00;;;;;;6059051;28;85160;-63
2023/01/04 07:51:58;;;;;;;22.27;16.02;;;24.30;41.80;;;;;;6070603;28;84742;-60
2023/01/04 07:54:58;;;;;;;25.20;15.70;;;24.40;42.40;;;;;;6063340;28;84928;-61
2023/01/04 07:57:59;;;;;;;31.55;17.27;;;24.40;42.10;;;;;;6068084;28;83464;-60
2023/01/04 08:00:59;;;;;;;23.13;14.77;;;24.50;42.60;;;;;;6050264;28;83332;-61
2023/01/04 08:04:00;;;;;;;20.17;13.93;;;24.30;41.50;;;;;;6059031;28;83456;-59
2023/01/04 08:07:00;;;;;;;18.15;11.38;;;24.30;41.90;;;;;;6060633;28;83334;-60
2023/01/04 08:10:01;;;;;;;15.70;10.68;;;24.20;42.00;;;;;;6047579;28;84249;-59
2023/01/04 08:13:01;;;;;;;14.20;10.00;;;24.20;42.30;;;;;;6068982;28;85995;-59
2023/01/04 08:16:02;;;;;;;14.82;9.93;;;24.20;43.20;;;;;;6053516;28;83338;-59
2023/01/04 08:19:03;;;;;;;13.00;8.55;;;24.20;44.20;;;;;;6065964;28;85801;-59
2023/01/04 08:22:03;;;;;;;16.98;9.25;;;24.20;45.00;;;;;;6055761;28;86378;-59
2023/01/04 08:25:05;;;;;;;13.50;9.35;;;24.30;46.00;;;;;;6054381;28;81306;-60
2023/01/04 08:28:05;;;;;;;13.10;9.00;;;24.30;46.80;;;;;;6074272;28;83283;-58
2023/01/04 08:31:06;;;;;;;18.13;8.65;;;24.30;47.10;;;;;;6051727;28;81877;-57
2023/01/04 08:34:07;;;;;;;16.33;8.95;;;24.40;47.60;;;;;;6053970;28;81989;-61
2023/01/04 08:37:07;;;;;;;12.82;8.43;;;24.40;47.80;;;;;;6062630;28;80967;-59
2023/01/04 08:40:08;;;;;;;14.00;9.65;;;24.60;47.60;;;;;;6062034;28;80803;-59
2023/01/04 08:43:08;;;;;;;15.07;10.93;;;24.80;46.20;;;;;;6052874;28;81424;-58
2023/01/04 08:46:09;;;;;;;16.70;11.10;;;25.00;45.10;;;;;;6067513;28;83833;-59
2023/01/04 08:49:10;;;;;;;16.08;10.88;;;25.10;44.60;;;;;;6070513;28;83290;-59
2023/01/04 08:52:11;;;;;;;20.85;12.02;;;25.20;44.10;;;;;;6071167;28;83497;-59
2023/01/04 08:55:11;;;;;;;19.25;12.25;;;25.30;43.80;;;;;;6075230;28;83032;-59
2023/01/04 08:58:12;;;;;;;17.45;11.95;;;25.40;43.40;;;;;;6078173;28;83768;-59
2023/01/04 09:01:12;;;;;;;18.63;12.20;;;25.50;43.20;;;;;;6075704;28;83651;-59
2023/01/04 09:04:13;;;;;;;17.95;11.77;;;25.50;42.90;;;;;;6078247;28;83488;-61
2023/01/04 09:07:13;;;;;;;19.05;12.45;;;25.60;42.80;;;;;;6077628;28;83354;-63
2023/01/04 09:10:15;;;;;;;17.40;11.95;;;25.60;42.50;;;;;;6067770;28;83490;-64
2023/01/04 09:13:15;;;;;;;15.93;11.00;;;25.60;42.60;;;;;;6076220;28;84782;-63
2023/01/04 09:16:16;;;;;;;18.20;11.88;;;25.70;42.70;;;;;;6078129;28;83414;-63
2023/01/04 09:19:16;;;;;;;18.23;11.70;;;25.70;42.40;;;;;;6076586;28;83520;-63
2023/01/04 09:22:17;;;;;;;17.08;11.98;;;25.80;42.40;;;;;;6077695;28;82886;-63
2023/01/04 09:25:17;;;;;;;20.02;12.48;;;25.90;42.30;;;;;;6074274;28;83406;-63
2023/01/04 09:28:18;;;;;;;16.27;11.10;;;25.90;42.10;;;;;;6124500;28;84044;-63
2023/01/04 09:31:19;;;;;;;15.80;10.63;;;26.10;42.10;;;;;;6087143;28;83882;-63
2023/01/04 09:34:19;;;;;;;15.40;10.55;;;26.20;42.00;;;;;;6078405;28;84263;-63
2023/01/04 09:37:20;;;;;;;15.95;10.48;;;26.30;41.90;;;;;;6077058;28;83251;-63
2023/01/04 09:40:20;;;;;;;13.50;10.45;;;26.40;41.90;;;;;;6076659;28;90895;-63
2023/01/04 09:43:21;;;;;;;16.70;10.73;;;26.40;41.90;;;;;;6101333;28;88104;-64
2023/01/04 09:46:21;;;;;;;14.35;9.80;;;26.50;41.80;;;;;;6103687;28;83172;-63
2023/01/04 09:49:22;;;;;;;15.00;9.90;;;26.60;41.80;;;;;;6111838;28;83440;-63
2023/01/04 09:52:22;;;;;;;13.65;10.10;;;26.70;41.60;;;;;;6104138;28;81016;-63
2023/01/04 09:55:23;;;;;;;16.63;10.20;;;26.70;41.40;;;;;;6100960;28;83160;-63
2023/01/04 09:58:23;;;;;;;14.90;10.02;;;26.80;41.40;;;;;;6101806;28;83962;-63
2023/01/04 10:01:24;;;;;;;15.50;9.20;;;26.80;41.30;;;;;;6092250;28;83056;-62
2023/01/04 10:04:25;;;;;;;11.50;8.07;;;26.90;41.10;;;;;;6100298;28;83456;-62
2023/01/04 10:07:26;;;;;;;12.25;8.10;;;27.00;41.10;;;;;;6103703;28;80502;-63
2023/01/04 10:10:27;;;;;;;12.38;7.45;;;27.00;41.10;;;;;;6091142;28;80768;-62
2023/01/04 10:13:27;;;;;;;9.13;6.93;;;27.10;41.00;;;;;;6101958;28;80522;-62
2023/01/04 10:16:28;;;;;;;10.00;7.15;;;27.10;40.90;;;;;;6093878;28;80581;-62
2023/01/04 10:19:28;;;;;;;9.73;6.20;;;27.20;41.00;;;;;;6094492;28;81095;-62
2023/01/04 10:22:29;;;;;;;8.73;6.18;;;27.20;40.90;;;;;;6102363;28;81131;-64
2023/01/04 10:25:30;;;;;;;7.78;4.95;;;27.20;40.90;;;;;;6101116;28;83243;-61
2023/01/04 10:28:30;;;;;;;11.68;4.85;;;27.20;41.70;;;;;;6088922;28;82725;-62
2023/01/04 10:31:31;;;;;;;6.53;4.30;;;27.20;42.60;;;;;;6061659;28;81503;-62
2023/01/04 10:34:31;;;;;;;4.10;3.63;;;27.20;43.50;;;;;;6068733;28;80572;-62
2023/01/04 10:37:32;;;;;;;8.73;3.67;;;27.20;43.70;;;;;;6060628;28;80927;-61
2023/01/04 10:40:32;;;;;;;4.32;3.35;;;27.20;43.70;;;;;;6063095;28;80807;-60
2023/01/04 10:43:33;;;;;;;4.70;3.15;;;27.20;43.90;;;;;;6074334;28;80626;-61
2023/01/04 10:46:33;;;;;;;4.72;3.22;;;27.20;43.90;;;;;;6060123;28;80786;-61
2023/01/04 10:49:34;;;;;;;5.00;3.35;;;27.30;44.30;;;;;;6064501;28;80240;-61
2023/01/04 10:52:35;;;;;;;4.82;3.10;;;27.40;44.20;;;;;;6067805;28;81749;-61
2023/01/04 10:55:35;;;;;;;5.90;3.25;;;27.40;44.20;;;;;;6067346;28;80947;-58
2023/01/04 10:58:36;;;;;;;4.55;3.13;;;27.50;44.70;;;;;;6076740;28;83451;-58
2023/01/04 11:01:36;;;;;;;2.97;2.40;;;27.50;44.60;;;;;;6058595;28;81018;-58
2023/01/04 11:04:37;;;;;;;2.53;2.17;;;27.50;44.70;;;;;;6065921;28;81112;-59
2023/01/04 11:07:38;;;;;;;2.85;2.40;;;27.60;44.70;;;;;;6070650;28;81437;-61
2023/01/04 11:10:38;;;;;;;4.35;2.50;;;27.60;44.70;;;;;;6063729;28;85517;-59
2023/01/04 11:13:39;;;;;;;3.80;2.15;;;27.70;45.60;;;;;;6096539;28;84220;-60
2023/01/04 11:16:39;;;;;;;5.07;2.65;;;27.70;44.90;;;;;;6059112;28;82043;-58
2023/01/04 11:19:40;;;;;;;5.35;2.60;;;27.80;45.30;;;;;;6063328;28;80840;-59
2023/01/04 11:22:40;;;;;;;4.13;2.63;;;27.80;45.20;;;;;;6059487;28;81087;-59
2023/01/04 11:25:41;;;;;;;4.22;2.88;;;27.80;44.90;;;;;;6066883;28;81114;-73
2023/01/04 11:28:41;;;;;;;4.07;3.10;;;27.90;44.60;;;;;;6097593;28;80761;-57
2023/01/04 11:31:42;;;;;;;2.90;2.42;;;27.90;44.50;;;;;;6056679;28;81130;-61
2023/01/04 11:34:42;;;;;;;6.55;2.88;;;27.90;44.30;;;;;;6059658;28;82817;-63
2023/01/04 11:37:43;;;;;;;8.15;2.95;;;27.80;44.20;;;;;;6067263;28;80514;-62
2023/01/04 11:40:44;;;;;;;4.07;2.67;;;27.80;44.10;;;;;;6066746;28;80320;-62
2023/01/04 11:43:44;;;;;;;5.30;2.97;;;27.70;44.20;;;;;;6063267;28;80959;-61
2023/01/04 11:46:45;;;;;;;4.43;2.97;;;27.60;44.00;;;;;;6060903;28;80508;-62
2023/01/04 11:49:45;;;;;;;3.97;2.90;;;27.50;44.00;;;;;;6062931;28;81542;-62
2023/01/04 11:52:46;;;;;;;4.78;2.83;;;27.40;44.00;;;;;;6067043;28;80591;-62
2023/01/04 11:55:47;;;;;;;3.33;2.55;;;27.40;43.80;;;;;;6060717;28;80097;-62
2023/01/04 11:58:47;;;;;;;3.58;2.58;;;27.30;43.70;;;;;;6059637;28;80660;-62
2023/01/04 12:01:48;;;;;;;4.50;3.25;;;27.30;43.80;;;;;;6061562;28;80873;-62
2023/01/04 12:04:48;;;;;;;5.07;3.00;;;27.20;43.70;;;;;;6061052;28;82445;-62
2023/01/04 12:07:49;;;;;;;3.88;2.80;;;27.10;43.70;;;;;;6069123;28;80474;-62
2023/01/04 12:10:50;;;;;;;4.63;3.03;;;27.00;44.30;;;;;;6058123;28;82134;-64
2023/01/04 12:13:50;;;;;;;3.92;2.78;;;26.90;43.70;;;;;;6061931;28;80528;-64
2023/01/04 12:16:51;;;;;;;5.57;3.03;;;26.80;43.80;;;;;;6074747;28;80962;-64
2023/01/04 12:19:53;;;;;;;3.80;2.90;;;26.80;43.80;;;;;;6073998;28;81279;-64
2023/01/04 12:22:53;;;;;;;4.72;2.92;;;26.80;43.90;;;;;;6053721;28;80846;-64
2023/01/04 12:25:54;;;;;;;4.63;2.53;;;26.80;43.80;;;;;;6068087;28;81225;-65
2023/01/04 12:28:57;;;;;;;3.60;2.78;;;26.70;44.30;;;;;;6081136;28;80942;-62
2023/01/04 12:31:57;;;;;;;5.47;3.22;;;26.70;43.60;;;;;;6063892;28;80697;-65
2023/01/04 12:34:58;;;;;;;4.10;2.83;;;26.70;43.60;;;;;;6065268;28;80825;-62
2023/01/04 12:37:58;;;;;;;2.92;2.60;;;26.60;43.60;;;;;;6058671;28;81283;-62
2023/01/04 12:40:59;;;;;;;2.97;2.65;;;26.60;43.50;;;;;;6058649;28;80705;-62
2023/01/04 12:44:00;;;;;;;2.42;2.20;;;26.60;43.50;;;;;;6058854;28;80677;-63
2023/01/04 12:50:22;;;;;;;3.92;2.72;;;26.60;43.40;;;;;;6058133;28;81020;-62
2023/01/04 12:53:22;;;;;;;3.72;2.63;;;26.70;43.30;;;;;;6065430;28;81480;-63
2023/01/04 12:56:23;;;;;;;3.20;2.50;;;26.70;43.20;;;;;;6062672;28;81213;-62
2023/01/04 12:59:23;;;;;;;4.07;3.03;;;26.70;43.10;;;;;;6058228;28;81589;-62
2023/01/04 13:02:24;;;;;;;4.90;2.70;;;26.70;43.10;;;;;;6062953;28;81997;-62
2023/01/04 13:05:24;;;;;;;3.67;2.72;;;26.60;43.10;;;;;;6067322;28;80839;-60
2023/01/04 13:08:25;;;;;;;4.78;2.60;;;26.50;43.10;;;;;;6058630;28;81394;-60
2023/01/04 13:11:25;;;;;;;3.72;2.95;;;26.40;42.90;;;;;;6077568;28;84722;-60
2023/01/04 13:14:26;;;;;;;3.38;2.38;;;26.30;42.70;;;;;;6062814;28;81243;-60
2023/01/04 13:17:26;;;;;;;4.20;2.75;;;26.20;42.80;;;;;;6064149;28;80289;-60
2023/01/04 13:20:29;;;;;;;3.45;2.60;;;26.20;42.90;;;;;;6057222;28;82528;-60
2023/01/04 13:23:29;;;;;;;3.25;2.45;;;26.00;42.70;;;;;;6057636;28;80529;-64
2023/01/04 13:26:30;;;;;;;4.95;2.50;;;25.90;42.80;;;;;;6094457;28;81004;-64
2023/01/04 13:29:30;;;;;;;3.20;2.25;;;25.80;42.40;;;;;;6119700;28;80854;-64
2023/01/04 13:32:34;;;;;;;2.92;2.60;;;25.70;41.60;;;;;;6071024;28;82028;-64
2023/01/04 13:35:34;;;;;;;3.35;2.47;;;25.70;41.00;;;;;;6071648;28;83618;-64
2023/01/04 13:38:35;;;;;;;2.72;2.08;;;25.60;41.20;;;;;;6056665;28;81300;-63
2023/01/04 13:41:35;;;;;;;4.63;2.30;;;25.50;41.30;;;;;;6062667;28;81462;-63
2023/01/04 13:44:36;;;;;;;4.28;2.50;;;25.50;41.50;;;;;;6076848;28;80664;-63
2023/01/04 13:47:36;;;;;;;4.15;2.50;;;25.40;41.50;;;;;;6056937;28;80915;-64
2023/01/04 13:50:38;;;;;;;3.78;2.50;;;25.30;41.50;;;;;;6057343;28;80594;-64
2023/01/04 13:53:39;;;;;;;3.33;2.08;;;25.30;41.60;;;;;;6057538;28;81271;-63
2023/01/04 13:56:39;;;;;;;3.38;2.25;;;25.20;41.50;;;;;;6069384;28;80869;-64
2023/01/04 13:59:40;;;;;;;2.58;2.20;;;25.20;41.60;;;;;;6059751;28;80524;-60
2023/01/04 14:02:40;;;;;;;2.85;2.00;;;25.20;41.60;;;;;;6056966;28;81040;-61
2023/01/04 14:05:41;;;;;;;4.10;2.33;;;25.10;41.40;;;;;;6052573;28;86100;-73
2023/01/04 14:08:41;;;;;;;3.00;2.10;;;25.10;41.50;;;;;;6058857;28;80077;-61
2023/01/04 14:11:57;;;;;;;4.97;2.10;;;25.10;41.50;;;;;;6065603;28;80884;-60
2023/01/04 14:14:58;;;;;;;5.55;2.40;;;25.20;42.00;;;;;;6080157;28;82753;-59
2023/01/04 14:17:58;;;;;;;11.23;2.47;;;25.20;41.90;;;;;;6078280;28;80730;-59
2023/01/04 14:20:59;;;;;;;4.45;2.08;;;25.50;41.80;;;;;;6079108;28;80456;-59
2023/01/04 14:23:59;;;;;;;6.00;2.35;;;25.50;41.20;;;;;;6069374;28;81971;-62
2023/01/04 14:27:00;;;;;;;3.97;2.00;;;25.50;41.20;;;;;;6060408;28;81824;-59
2023/01/04 14:30:00;;;;;;;7.35;2.15;;;25.50;41.50;;;;;;6060662;28;81049;-60
2023/01/04 14:33:01;;;;;;;3.75;2.05;;;25.50;41.70;;;;;;6056224;28;80769;-60
2023/01/04 14:36:01;;;;;;;4.85;2.10;;;25.40;41.80;;;;;;6057091;28;80493;-64
2023/01/04 14:39:02;;;;;;;3.92;2.00;;;25.30;41.90;;;;;;6068524;28;80406;-60
2023/01/04 14:42:03;;;;;;;2.53;1.92;;;25.30;42.50;;;;;;6067066;28;81023;-65
2023/01/04 14:45:04;;;;;;;3.47;2.22;;;25.30;42.50;;;;;;6078226;28;80519;-64
2023/01/04 14:48:04;;;;;;;8.27;2.40;;;25.20;42.40;;;;;;6077153;28;80817;-64
2023/01/04 14:51:05;;;;;;;3.15;1.83;;;25.10;42.30;;;;;;6070845;28;80414;-63
2023/01/04 14:54:06;;;;;;;5.15;2.28;;;25.10;42.20;;;;;;6077397;28;81649;-70
2023/01/04 14:57:07;;;;;;;7.63;2.30;;;25.00;42.20;;;;;;6079077;28;80448;-70
2023/01/04 15:00:07;;;;;;;2.88;2.05;;;25.00;42.30;;;;;;6078996;28;80472;-67
2023/01/04 15:03:08;;;;;;;4.60;1.70;;;25.00;42.60;;;;;;6077443;28;80657;-67
2023/01/04 15:06:09;;;;;;;6.70;2.47;;;25.00;42.50;;;;;;6075735;28;80338;-67
2023/01/04 15:09:09;;;;;;;4.10;2.00;;;24.90;42.40;;;;;;6076434;28;80433;-67
2023/01/04 15:12:10;;;;;;;6.47;1.70;;;24.90;42.60;;;;;;6059951;28;81249;-65
2023/01/04 15:15:10;;;;;;;9.38;2.00;;;24.90;42.70;;;;;;6067527;28;80530;-65
2023/01/04 15:18:11;;;;;;;5.22;2.03;;;24.90;42.80;;;;;;6075032;28;81053;-65
2023/01/04 15:21:12;;;;;;;7.03;2.50;;;24.90;43.00;;;;;;6068914;28;80604;-65
2023/01/04 15:24:12;;;;;;;10.32;3.40;;;24.90;43.00;;;;;;6064313;28;80371;-65
2023/01/04 15:27:13;;;;;;;13.60;3.60;;;24.90;43.40;;;;;;6069197;28;80678;-66
2023/01/04 15:30:13;;;;;;;14.77;4.45;;;24.90;44.40;;;;;;6037355;28;84611;-68
2023/01/04 15:33:14;;;;;;;15.48;4.88;;;24.90;44.60;;;;;;6069198;28;81532;-59
2023/01/04 15:36:14;;;;;;;20.10;6.00;;;24.90;45.00;;;;;;6069868;28;80798;-66
2023/01/04 15:39:15;;;;;;;12.65;4.95;;;24.90;44.90;;;;;;6054834;28;81468;-62
2023/01/04 15:45:35;;;;;;;11.73;4.63;;;25.00;44.70;;;;;;6069898;28;80520;-60
2023/01/04 15:48:35;;;;;;;10.57;4.63;;;25.00;44.70;;;;;;6048647;28;81924;-61
2023/01/04 15:51:36;;;;;;;7.72;3.70;;;24.90;44.70;;;;;;6046583;28;86016;-64
2023/01/04 15:54:36;;;;;;;10.10;4.13;;;25.00;44.60;;;;;;6045840;28;83941;-66
2023/01/04 15:57:37;;;;;;;14.88;4.35;;;25.00;44.50;;;;;;6064065;28;83140;-64
2023/01/04 16:00:38;;;;;;;12.23;4.03;;;24.90;44.40;;;;;;6069715;28;83352;-63
2023/01/04 16:03:38;;;;;;;13.10;3.92;;;25.00;44.30;;;;;;6043336;28;83911;-64
2023/01/04 16:06:39;;;;;;;8.35;3.33;;;25.00;44.10;;;;;;6055314;28;83246;-66
2023/01/04 16:09:42;;;;;;;9.85;3.70;;;25.00;43.80;;;;;;6060294;28;81318;-59
2023/01/04 16:12:45;;;;;;;5.88;3.42;;;24.90;43.80;;;;;;6070285;28;83295;-58
2023/01/04 16:15:46;;;;;;;10.70;4.03;;;24.90;43.70;;;;;;6080713;28;80444;-59
2023/01/04 16:18:46;;;;;;;7.05;3.13;;;25.00;43.80;;;;;;6083416;28;81603;-58
2023/01/04 16:21:47;;;;;;;7.93;3.22;;;24.90;43.50;;;;;;6064409;28;81907;-59